Terminal Aerodrome Forecast
Issued by NWS

Current Version | Previous Version | Graphics & Text | Print | Product List | Glossary On
Versions: 1 2 3 4 5 6 7 8 9 10 11 12 13 14
000
FTUS41 KILN 180537
TAFLUK
TAF
KLUK 180537Z 1806/1906 22005KT P6SM BKN011
      TEMPO 1807/1811 4SM BR SCT011 SCT045
     FM181200 25005KT 6SM BR SCT060
     FM181400 27009KT P6SM SCT035
     FM182300 28009KT P6SM SCT250
     FM190200 27004KT P6SM SCT250=

USA.gov is the U.S. government's official web portal to all federal, state and local government web resources and services.